Time;durP1;ratioP1;P1;durP2;ratioP2;P2;SDS_P1;SDS_P2;PMS_P1;PMS_P2;Temp;Humidity;BMP_temperature;BMP_pressure;BME280_temperature;BME280_humidity;BME280_pressure;Samples;Min_cycle;Max_cycle;Signal;HPM_P1;HPM_P2
2021/07/23 00:00:09;;;;;;;9.13;6.87;;;;;;;17.24;94.94;101043.88;5130190;28;20561;-76
2021/07/23 00:02:39;;;;;;;9.95;6.35;;;;;;;17.15;95.51;101049.69;5126906;28;20413;-78
2021/07/23 00:05:10;;;;;;;9.65;6.45;;;;;;;17.12;95.16;101050.69;5127067;28;20043;-77
2021/07/23 00:07:40;;;;;;;10.30;7.00;;;;;;;17.11;95.45;101059.56;5125525;28;20043;-78
2021/07/23 00:10:11;;;;;;;9.68;6.80;;;;;;;17.00;96.48;101058.44;5135749;28;20415;-77
2021/07/23 00:12:41;;;;;;;9.35;6.97;;;;;;;16.81;97.97;101049.81;5121976;29;20028;-77
2021/07/23 00:15:11;;;;;;;10.45;6.50;;;;;;;16.88;98.37;101052.03;5126722;28;20065;-76
2021/07/23 00:17:42;;;;;;;11.10;6.95;;;;;;;16.82;97.42;101054.16;5127177;29;20046;-78
2021/07/23 00:20:12;;;;;;;9.25;7.20;;;;;;;16.68;98.20;101050.50;5127363;28;20074;-76
2021/07/23 00:22:42;;;;;;;9.52;6.38;;;;;;;16.61;99.99;101057.06;5125887;28;20041;-77
2021/07/23 00:25:13;;;;;;;11.02;6.70;;;;;;;16.78;98.24;101056.09;5131997;28;20045;-78
2021/07/23 00:27:43;;;;;;;13.68;6.90;;;;;;;16.90;97.52;101059.84;5123393;28;20105;-77
2021/07/23 00:30:14;;;;;;;10.90;6.65;;;;;;;16.94;96.45;101056.97;5123523;28;20024;-78
2021/07/23 00:32:44;;;;;;;13.95;6.78;;;;;;;16.66;97.89;101058.53;5122384;29;20466;-77
2021/07/23 00:35:14;;;;;;;9.02;6.75;;;;;;;16.43;100.00;101053.63;5123507;28;20537;-78
2021/07/23 00:37:44;;;;;;;10.40;6.85;;;;;;;16.65;98.43;101048.91;5123933;28;20083;-76
2021/07/23 00:40:15;;;;;;;11.50;7.07;;;;;;;16.56;98.25;101051.19;5133325;28;20023;-77
2021/07/23 00:42:45;;;;;;;10.40;6.43;;;;;;;16.87;98.11;101054.75;5123022;28;20797;-78
2021/07/23 00:45:17;;;;;;;10.37;6.80;;;;;;;16.98;96.53;101049.75;5123702;28;20512;-78
2021/07/23 00:47:55;;;;;;;7.55;5.47;;;;;;;17.11;94.60;101043.72;5112119;28;20282;-76
2021/07/23 00:50:25;;;;;;;8.85;5.50;;;;;;;17.08;95.15;101045.66;5120604;29;20041;-76
2021/07/23 00:52:57;;;;;;;7.43;5.57;;;;;;;16.98;95.28;101052.38;5123708;28;20117;-76
2021/07/23 00:55:27;;;;;;;14.98;5.78;;;;;;;16.91;94.60;101049.22;5131218;28;20061;-77
2021/07/23 00:57:59;;;;;;;10.75;5.60;;;;;;;16.90;95.35;101038.72;5123238;28;20063;-77
2021/07/23 01:00:30;;;;;;;8.75;5.68;;;;;;;16.88;95.65;101041.47;5120568;28;20054;-78
2021/07/23 01:03:01;;;;;;;10.95;4.97;;;;;;;16.92;95.82;101047.41;5125701;28;20074;-78
2021/07/23 01:05:31;;;;;;;10.10;5.63;;;;;;;16.87;95.94;101047.69;5125965;28;20175;-78
2021/07/23 01:08:02;;;;;;;9.30;5.60;;;;;;;16.93;96.51;101043.84;5127640;28;20031;-76
2021/07/23 01:10:36;;;;;;;8.65;5.20;;;;;;;16.94;96.37;101040.28;5133206;28;20058;-78
2021/07/23 01:13:07;;;;;;;9.35;5.18;;;;;;;16.86;95.42;101039.84;5123510;29;20027;-78
2021/07/23 01:15:38;;;;;;;9.57;5.45;;;;;;;16.67;96.14;101039.13;5126087;28;20054;-77
2021/07/23 01:18:08;;;;;;;10.13;5.28;;;;;;;16.96;93.57;101044.53;5125482;28;20031;-76
2021/07/23 01:20:40;;;;;;;9.20;4.97;;;;;;;16.63;95.46;101056.06;5123796;29;20090;-78
2021/07/23 01:23:10;;;;;;;7.65;4.78;;;;;;;16.62;96.02;101053.50;5128491;28;20109;-77
2021/07/23 01:25:41;;;;;;;11.00;4.95;;;;;;;16.55;95.96;101046.84;5133024;28;20529;-78
2021/07/23 01:28:12;;;;;;;11.43;5.30;;;;;;;16.56;95.44;101053.81;5126942;28;20661;-78
2021/07/23 01:30:43;;;;;;;8.80;4.78;;;;;;;16.53;96.81;101039.00;5126015;28;20494;-76
2021/07/23 01:33:13;;;;;;;10.98;5.65;;;;;;;16.38;97.63;101049.50;5125024;29;20041;-78
2021/07/23 01:35:44;;;;;;;9.55;5.18;;;;;;;16.39;96.38;101038.00;5125350;28;20383;-78
2021/07/23 01:38:17;;;;;;;9.43;4.65;;;;;;;16.70;95.50;101038.94;5128161;28;20433;-78
2021/07/23 01:40:48;;;;;;;13.00;4.57;;;;;;;16.55;96.51;101036.28;5131625;28;20035;-77
2021/07/23 01:43:19;;;;;;;11.25;4.93;;;;;;;16.79;95.22;101031.38;5125664;28;20101;-77
2021/07/23 01:45:49;;;;;;;8.02;4.32;;;;;;;16.68;95.20;101037.31;5125057;28;20027;-76
2021/07/23 01:48:20;;;;;;;8.30;4.20;;;;;;;16.74;94.79;101042.28;5124815;28;20038;-78
2021/07/23 01:50:50;;;;;;;9.75;3.95;;;;;;;16.67;95.09;101031.19;5124416;28;20438;-78
2021/07/23 01:53:21;;;;;;;8.40;4.10;;;;;;;16.59;95.43;101037.81;5127973;28;20026;-77
2021/07/23 01:55:51;;;;;;;12.60;4.32;;;;;;;16.57;94.37;101031.78;5131435;28;20300;-78
2021/07/23 01:58:22;;;;;;;9.05;3.90;;;;;;;16.52;93.69;101034.66;5125234;28;20066;-78
2021/07/23 02:00:57;;;;;;;9.07;3.90;;;;;;;16.59;93.94;101036.00;5125371;28;20386;-77
2021/07/23 02:03:27;;;;;;;9.85;4.20;;;;;;;16.66;92.55;101037.41;5123308;29;20031;-78
2021/07/23 02:05:57;;;;;;;7.00;3.50;;;;;;;16.63;91.67;101034.06;5123266;29;20301;-78
2021/07/23 02:08:28;;;;;;;8.60;3.60;;;;;;;16.56;92.39;101035.34;5126091;28;20298;-78
2021/07/23 02:11:00;;;;;;;8.95;3.67;;;;;;;16.48;92.04;101030.47;5129155;28;20344;-78
2021/07/23 02:13:31;;;;;;;9.25;3.60;;;;;;;16.26;94.38;101035.13;5128787;28;20038;-78
2021/07/23 02:16:07;;;;;;;10.70;3.80;;;;;;;16.45;93.66;101030.63;5128937;28;20027;-77
2021/07/23 02:18:37;;;;;;;6.07;3.30;;;;;;;16.49;93.36;101024.25;5129147;28;20054;-76
2021/07/23 02:21:08;;;;;;;7.03;3.33;;;;;;;16.41;93.12;101034.34;5127490;29;20047;-77
2021/07/23 02:23:38;;;;;;;6.45;3.53;;;;;;;16.25;93.79;101037.81;5130200;28;20033;-77
2021/07/23 02:26:18;;;;;;;7.55;3.83;;;;;;;16.10;94.90;101028.06;5135363;28;20049;-78
2021/07/23 02:28:49;;;;;;;9.35;3.80;;;;;;;16.17;93.89;101027.66;5124396;29;20031;-78
2021/07/23 02:31:19;;;;;;;7.00;3.33;;;;;;;16.35;92.75;101024.13;5127101;29;20046;-78
2021/07/23 02:33:50;;;;;;;7.75;3.20;;;;;;;16.40;93.34;101021.25;5129069;28;20027;-77
2021/07/23 02:36:20;;;;;;;8.77;3.40;;;;;;;16.22;93.46;101025.63;5128509;28;20392;-76
2021/07/23 02:38:50;;;;;;;5.78;3.22;;;;;;;16.28;94.32;101027.13;5133064;28;20031;-77
2021/07/23 02:41:21;;;;;;;7.63;3.15;;;;;;;16.21;93.29;101021.28;5132620;28;20019;-78
2021/07/23 02:43:51;;;;;;;8.67;3.43;;;;;;;16.31;93.42;101021.69;5128768;28;20023;-78
2021/07/23 02:46:21;;;;;;;11.40;3.20;;;;;;;16.11;93.50;101022.72;5126835;29;20713;-77
2021/07/23 02:48:52;;;;;;;8.60;2.90;;;;;;;16.31;92.95;101014.63;5127845;28;20091;-77
2021/07/23 02:51:22;;;;;;;8.65;3.45;;;;;;;16.05;94.54;101015.09;5126639;29;20032;-77
2021/07/23 02:53:52;;;;;;;7.78;3.30;;;;;;;16.08;94.96;101014.94;5132202;28;20034;-78
2021/07/23 02:56:22;;;;;;;6.50;2.97;;;;;;;16.20;93.57;101014.31;5134236;28;20465;-76
2021/07/23 02:58:53;;;;;;;9.00;3.17;;;;;;;16.42;92.79;101007.03;5128430;28;20042;-76
2021/07/23 03:01:23;;;;;;;8.57;3.40;;;;;;;16.39;93.08;101016.91;5126100;29;20059;-78
2021/07/23 03:03:53;;;;;;;8.45;3.45;;;;;;;16.11;95.04;101014.81;5127187;29;20034;-78
2021/07/23 03:06:23;;;;;;;8.30;3.10;;;;;;;16.19;92.96;101009.13;5128514;28;20035;-78
2021/07/23 03:08:54;;;;;;;7.60;3.50;;;;;;;16.24;93.00;101002.66;5132178;28;20310;-78
2021/07/23 03:11:24;;;;;;;6.45;3.13;;;;;;;16.17;93.32;101000.44;5133034;28;20236;-78
2021/07/23 03:13:55;;;;;;;11.05;3.40;;;;;;;16.30;92.65;101004.16;5126485;29;20509;-78
2021/07/23 03:16:26;;;;;;;8.23;3.25;;;;;;;16.31;92.21;100996.16;5127585;28;20038;-77
2021/07/23 03:18:56;;;;;;;10.65;3.50;;;;;;;16.12;93.71;100999.81;5126199;28;20493;-78
2021/07/23 03:21:26;;;;;;;5.90;3.05;;;;;;;16.22;93.97;101001.91;5127128;28;20281;-78
2021/07/23 03:23:57;;;;;;;8.13;3.60;;;;;;;16.32;92.96;101004.91;5129793;28;20034;-78
2021/07/23 03:26:27;;;;;;;7.90;3.47;;;;;;;16.31;92.74;101004.06;5133480;28;20098;-78
2021/07/23 03:28:58;;;;;;;7.47;3.50;;;;;;;16.20;92.59;101002.94;5127631;28;20062;-79
2021/07/23 03:31:30;;;;;;;8.93;3.72;;;;;;;16.21;92.71;101000.19;5127290;28;20107;-78
2021/07/23 03:34:01;;;;;;;10.00;3.55;;;;;;;15.83;94.88;101009.22;5125853;28;20253;-77
2021/07/23 03:36:31;;;;;;;6.50;3.58;;;;;;;15.88;94.22;101001.06;5123422;28;20035;-78
2021/07/23 03:39:01;;;;;;;9.43;4.00;;;;;;;16.20;92.99;101006.41;5127890;28;20486;-77
2021/07/23 03:41:31;;;;;;;6.68;3.92;;;;;;;15.98;93.59;100994.38;5125912;28;20034;-78
2021/07/23 03:44:02;;;;;;;7.53;3.80;;;;;;;15.89;94.51;101003.63;5121567;29;20394;-78
2021/07/23 03:46:32;;;;;;;8.07;3.80;;;;;;;16.04;94.08;100997.56;5122460;28;20034;-75
2021/07/23 03:49:03;;;;;;;8.35;4.05;;;;;;;15.51;98.01;100993.28;5122295;28;20114;-78
2021/07/23 03:51:33;;;;;;;10.40;4.07;;;;;;;15.09;100.00;100997.94;5117900;28;20573;-78
2021/07/23 03:54:04;;;;;;;9.73;4.35;;;;;;;15.66;98.04;101001.28;5114659;28;20031;-77
2021/07/23 03:56:34;;;;;;;7.32;3.90;;;;;;;15.40;99.69;100999.06;5126350;28;20027;-78
2021/07/23 03:59:05;;;;;;;8.93;4.40;;;;;;;15.18;100.00;100995.72;5122186;28;20468;-76
2021/07/23 04:01:38;;;;;;;12.10;4.68;;;;;;;14.98;100.00;101001.09;5121894;28;20031;-76
2021/07/23 04:04:08;;;;;;;8.77;4.32;;;;;;;14.88;100.00;101005.06;5121989;28;20516;-76
2021/07/23 04:06:38;;;;;;;9.95;4.25;;;;;;;15.00;100.00;100998.38;5122251;28;20042;-76
2021/07/23 04:09:08;;;;;;;8.60;4.20;;;;;;;15.14;100.00;101002.06;5126672;28;20121;-76
2021/07/23 04:11:48;;;;;;;6.13;4.50;;;;;;;15.38;99.84;101006.19;5123332;28;20110;-76
2021/07/23 04:14:22;;;;;;;9.52;4.70;;;;;;;15.35;100.00;100997.59;5113569;29;20273;-76
2021/07/23 04:16:53;;;;;;;11.82;4.60;;;;;;;15.38;100.00;101006.19;5120872;28;20297;-76
2021/07/23 04:19:23;;;;;;;10.38;4.15;;;;;;;15.77;98.11;100998.13;5119750;29;20208;-76
2021/07/23 04:21:53;;;;;;;7.93;4.60;;;;;;;15.69;97.84;100997.66;5121379;28;20087;-76
2021/07/23 04:24:24;;;;;;;13.15;4.63;;;;;;;15.55;99.39;101003.59;5129066;28;20500;-77
2021/07/23 04:26:57;;;;;;;8.60;4.40;;;;;;;15.40;99.87;101006.97;5129403;28;20508;-77
2021/07/23 04:29:28;;;;;;;10.10;4.68;;;;;;;15.61;97.66;101003.31;5123012;28;20118;-78
2021/07/23 04:31:58;;;;;;;9.10;4.90;;;;;;;15.52;99.86;101006.38;5119562;29;20122;-77
2021/07/23 04:34:28;;;;;;;8.55;3.80;;;;;;;15.89;98.95;101005.41;5120524;28;20031;-76
2021/07/23 04:37:00;;;;;;;9.18;4.15;;;;;;;15.87;99.69;101007.28;5119594;28;20586;-76
2021/07/23 04:39:31;;;;;;;9.40;4.00;;;;;;;16.12;96.71;101005.97;5126594;28;20027;-76
2021/07/23 04:42:04;;;;;;;11.40;4.35;;;;;;;15.74;100.00;101001.75;5122329;28;20317;-77
2021/07/23 04:44:35;;;;;;;11.43;4.25;;;;;;;16.28;100.00;101004.25;5123006;28;20035;-77
2021/07/23 04:47:05;;;;;;;8.75;4.20;;;;;;;16.41;97.89;101002.69;5125603;28;20023;-78
2021/07/23 04:49:36;;;;;;;6.78;4.15;;;;;;;16.90;95.72;101005.28;5124690;28;20031;-78
2021/07/23 04:52:06;;;;;;;7.93;4.38;;;;;;;16.86;93.59;101000.22;5121932;29;20058;-77
2021/07/23 04:54:37;;;;;;;7.80;3.90;;;;;;;16.30;97.92;101002.38;5130120;28;20019;-77
2021/07/23 04:57:12;;;;;;;8.57;3.90;;;;;;;16.19;97.98;101002.06;5124981;28;20107;-78
2021/07/23 04:59:42;;;;;;;7.45;3.97;;;;;;;16.50;98.98;101004.84;5124022;28;20031;-77
2021/07/23 05:02:13;;;;;;;10.30;4.60;;;;;;;17.27;93.96;101001.44;5128541;28;20363;-78
2021/07/23 05:04:43;;;;;;;10.33;4.10;;;;;;;18.80;87.53;100993.09;5124866;28;20027;-77
2021/07/23 05:07:13;;;;;;;7.32;3.80;;;;;;;19.33;80.79;100993.22;5124163;28;20354;-78
2021/07/23 05:09:44;;;;;;;7.18;3.33;;;;;;;21.15;78.50;100987.56;5131025;28;20041;-78
2021/07/23 05:12:15;;;;;;;6.38;3.33;;;;;;;21.45;73.09;100986.19;5124918;28;20023;-79
2021/07/23 05:14:45;;;;;;;6.55;3.13;;;;;;;20.39;75.39;100987.75;5124918;28;20098;-79
2021/07/23 05:17:15;;;;;;;10.93;3.40;;;;;;;22.36;68.28;100985.44;5129222;28;20034;-79
2021/07/23 05:19:46;;;;;;;7.47;2.78;;;;;;;23.57;64.37;100987.06;5120923;28;20031;-80
2021/07/23 05:22:16;;;;;;;7.90;3.15;;;;;;;23.00;65.76;100985.63;5122970;28;20651;-79
2021/07/23 05:24:47;;;;;;;6.68;2.60;;;;;;;24.80;62.64;100979.13;5128264;28;20035;-77
2021/07/23 05:27:18;;;;;;;7.38;3.00;;;;;;;23.97;62.54;100979.28;5128885;28;20089;-77
2021/07/23 05:29:48;;;;;;;7.35;2.72;;;;;;;24.36;61.56;100976.75;5124749;28;20038;-78
2021/07/23 05:32:18;;;;;;;8.13;2.80;;;;;;;25.76;59.82;100972.97;5124455;28;20127;-77
2021/07/23 05:34:48;;;;;;;10.68;2.78;;;;;;;25.30;59.72;100980.84;5127301;28;20038;-79
2021/07/23 05:37:19;;;;;;;5.70;2.27;;;;;;;24.50;61.54;100983.56;5126544;28;20086;-79
2021/07/23 05:39:49;;;;;;;9.50;3.00;;;;;;;24.34;61.68;100989.41;5132147;28;20782;-79
2021/07/23 05:42:19;;;;;;;6.50;2.37;;;;;;;26.20;59.11;100972.44;5128764;28;20019;-80
2021/07/23 05:44:50;;;;;;;8.83;2.53;;;;;;;25.34;60.73;100979.59;5122552;29;20275;-80
2021/07/23 05:47:20;;;;;;;9.60;2.42;;;;;;;26.08;59.31;100979.78;5122824;28;20285;-80
2021/07/23 05:49:50;;;;;;;7.70;2.97;;;;;;;23.10;64.48;100992.75;5122915;28;20039;-80
2021/07/23 05:52:21;;;;;;;6.00;2.30;;;;;;;24.63;62.97;100989.59;5133035;28;20034;-79
2021/07/23 05:54:51;;;;;;;5.57;2.75;;;;;;;25.94;59.48;100982.03;5130515;28;20031;-79
2021/07/23 05:57:21;;;;;;;7.30;2.80;;;;;;;25.10;60.04;100979.06;5128540;28;20035;-80
2021/07/23 05:59:52;;;;;;;6.75;2.47;;;;;;;26.62;57.04;100971.06;5126253;28;20031;-80
2021/07/23 06:02:22;;;;;;;7.68;2.88;;;;;;;26.31;57.29;100969.59;5125481;28;20027;-79
2021/07/23 06:04:52;;;;;;;7.60;2.80;;;;;;;26.24;57.97;100968.47;5124525;29;20031;-78
2021/07/23 06:07:22;;;;;;;6.13;2.80;;;;;;;23.07;63.81;100985.00;5126159;28;20310;-79
2021/07/23 06:09:53;;;;;;;8.23;3.00;;;;;;;22.34;68.47;100979.38;5133489;28;20278;-79
2021/07/23 06:12:23;;;;;;;5.60;2.93;;;;;;;23.72;63.57;100977.78;5126417;28;20307;-78
2021/07/23 06:14:53;;;;;;;5.72;2.42;;;;;;;23.51;65.36;100971.56;5124320;29;20788;-79
2021/07/23 06:17:23;;;;;;;8.10;2.60;;;;;;;22.90;65.68;100974.84;5124251;28;20074;-80
2021/07/23 06:19:54;;;;;;;8.48;2.80;;;;;;;21.86;69.09;100975.13;5125634;28;20559;-80
2021/07/23 06:22:24;;;;;;;4.97;2.77;;;;;;;21.26;71.62;100987.66;5125081;28;20499;-79
2021/07/23 06:24:56;;;;;;;8.33;2.97;;;;;;;22.03;68.44;100974.69;5132359;28;20281;-80
2021/07/23 06:27:26;;;;;;;10.15;2.90;;;;;;;21.41;71.21;100973.22;5127665;28;20287;-80
2021/07/23 06:29:57;;;;;;;5.93;2.53;;;;;;;22.45;68.80;100963.44;5123799;29;20398;-79
2021/07/23 06:32:30;;;;;;;6.97;2.42;;;;;;;23.32;66.59;100967.84;5126489;28;20026;-79
2021/07/23 06:35:01;;;;;;;5.47;2.58;;;;;;;23.67;65.38;100966.66;5125034;28;20023;-80
2021/07/23 06:37:31;;;;;;;5.53;2.45;;;;;;;23.82;65.05;100969.84;5123354;28;20046;-80
2021/07/23 06:40:02;;;;;;;5.80;2.30;;;;;;;23.66;63.17;100972.13;5125466;28;20031;-79
2021/07/23 06:42:35;;;;;;;9.70;2.50;;;;;;;24.41;62.04;100973.69;5124727;28;20023;-77
2021/07/23 06:45:06;;;;;;;5.38;2.10;;;;;;;24.78;61.76;100965.88;5124664;28;20034;-78
2021/07/23 06:47:36;;;;;;;7.65;2.20;;;;;;;24.39;60.47;100968.47;5124034;29;20476;-79
2021/07/23 06:50:07;;;;;;;8.68;2.03;;;;;;;24.79;61.60;100969.41;5124281;28;20110;-80
2021/07/23 06:52:37;;;;;;;8.65;2.38;;;;;;;24.63;61.46;100971.72;5122835;28;20031;-76
2021/07/23 06:55:08;;;;;;;6.60;2.17;;;;;;;25.10;61.08;100968.34;5125201;28;20058;-78
2021/07/23 06:57:38;;;;;;;7.03;2.10;;;;;;;25.62;59.89;100965.38;5123016;28;20480;-78
2021/07/23 07:00:10;;;;;;;7.47;2.00;;;;;;;25.88;59.47;100966.53;5131503;28;20086;-79
2021/07/23 07:02:40;;;;;;;5.05;2.00;;;;;;;26.96;58.38;100967.66;5135782;28;20055;-79
2021/07/23 07:05:11;;;;;;;8.57;2.22;;;;;;;23.86;63.43;100974.84;5129623;28;20031;-77
2021/07/23 07:07:42;;;;;;;6.10;2.20;;;;;;;25.27;59.24;100975.75;5128059;28;20035;-77
2021/07/23 07:10:12;;;;;;;5.75;2.30;;;;;;;24.64;62.73;100975.22;5136993;28;20111;-77
2021/07/23 07:12:42;;;;;;;8.90;2.40;;;;;;;25.72;60.98;100966.22;5126785;28;20031;-77
2021/07/23 07:15:12;;;;;;;9.10;2.40;;;;;;;24.72;61.50;100968.22;5128182;28;20023;-77
2021/07/23 07:17:43;;;;;;;5.57;1.90;;;;;;;26.53;58.20;100967.41;5126953;28;20034;-77
2021/07/23 07:20:13;;;;;;;5.70;2.10;;;;;;;26.91;56.43;100968.09;5124634;28;20035;-77
2021/07/23 07:22:43;;;;;;;6.40;1.97;;;;;;;27.22;55.29;100971.34;5125702;28;20030;-77
2021/07/23 07:25:14;;;;;;;5.40;2.10;;;;;;;26.50;56.40;100969.56;5132266;28;20345;-77
2021/07/23 07:27:44;;;;;;;6.60;2.13;;;;;;;27.00;57.18;100967.22;5125500;28;20274;-77
2021/07/23 07:30:15;;;;;;;5.53;2.00;;;;;;;27.92;54.93;100972.28;5122848;29;20031;-77
2021/07/23 07:32:45;;;;;;;6.72;1.77;;;;;;;27.00;56.25;100969.06;5123988;28;20310;-77
2021/07/23 07:35:16;;;;;;;6.47;2.03;;;;;;;27.39;55.91;100967.84;5125637;28;20147;-77
2021/07/23 07:37:46;;;;;;;11.52;2.05;;;;;;;26.88;55.69;100965.72;5125668;28;20244;-77
2021/07/23 07:40:17;;;;;;;5.47;2.10;;;;;;;26.03;57.94;100965.13;5136192;28;20085;-77
2021/07/23 07:42:47;;;;;;;6.32;1.83;;;;;;;28.47;53.41;100962.94;5129702;28;20033;-78
2021/07/23 07:45:17;;;;;;;4.70;2.10;;;;;;;28.36;53.91;100968.63;5133248;28;20401;-77
2021/07/23 07:47:48;;;;;;;7.85;2.20;;;;;;;29.67;52.24;100953.53;5125612;28;20119;-77
2021/07/23 07:50:18;;;;;;;7.77;2.27;;;;;;;28.51;53.59;100967.00;5124144;29;20516;-78
2021/07/23 07:52:48;;;;;;;10.37;2.10;;;;;;;28.63;52.96;100967.59;5124500;28;20054;-77
2021/07/23 07:55:19;;;;;;;5.10;1.93;;;;;;;29.85;50.36;100958.75;5122923;28;20023;-77
2021/07/23 07:57:49;;;;;;;5.55;1.90;;;;;;;28.52;53.16;100974.09;5125230;28;20226;-77
2021/07/23 08:00:19;;;;;;;6.47;2.17;;;;;;;30.78;50.62;100951.72;5124995;28;20029;-78
2021/07/23 08:02:49;;;;;;;6.70;2.10;;;;;;;30.08;50.22;100967.88;5125635;28;20326;-77
2021/07/23 08:05:20;;;;;;;8.00;2.13;;;;;;;29.66;50.79;100965.31;5124113;29;20027;-76
2021/07/23 08:07:50;;;;;;;9.80;2.45;;;;;;;28.03;53.58;100971.19;5124576;28;20023;-77
2021/07/23 08:10:24;;;;;;;4.55;1.85;;;;;;;30.66;49.64;100958.53;5134405;28;20031;-77
2021/07/23 08:12:54;;;;;;;5.82;2.10;;;;;;;30.98;49.22;100950.28;5125168;28;20090;-76
2021/07/23 08:15:25;;;;;;;7.60;2.13;;;;;;;30.05;50.14;100952.06;5123993;28;20102;-77
2021/07/23 08:17:59;;;;;;;6.28;1.85;;;;;;;31.35;47.46;100951.31;5124583;28;20684;-77
2021/07/23 08:20:30;;;;;;;7.45;1.88;;;;;;;30.05;50.80;100943.97;5125157;28;20027;-78
2021/07/23 08:23:00;;;;;;;5.65;1.75;;;;;;;30.17;49.17;100945.28;5124558;28;20086;-77
2021/07/23 08:25:31;;;;;;;7.10;1.85;;;;;;;29.41;50.86;100947.38;5133240;28;20330;-77
2021/07/23 08:28:01;;;;;;;4.72;2.00;;;;;;;28.46;52.99;100947.81;5125459;28;20118;-77
2021/07/23 08:30:31;;;;;;;6.80;1.87;;;;;;;29.73;51.50;100939.38;5124492;28;20422;-77
2021/07/23 08:33:02;;;;;;;7.30;2.10;;;;;;;28.07;54.28;100942.97;5124753;28;20290;-77
2021/07/23 08:35:32;;;;;;;5.93;1.73;;;;;;;30.73;49.25;100931.66;5125047;28;20426;-77
2021/07/23 08:38:02;;;;;;;8.52;1.95;;;;;;;31.49;47.19;100925.34;5124477;28;20038;-77
2021/07/23 08:40:33;;;;;;;7.45;1.90;;;;;;;29.84;51.79;100939.03;5125441;28;20381;-77
2021/07/23 08:43:04;;;;;;;7.50;1.80;;;;;;;31.01;48.68;100933.75;5123557;28;20066;-77
2021/07/23 08:45:36;;;;;;;6.53;1.95;;;;;;;30.43;48.96;100935.94;5124099;28;20027;-77
2021/07/23 08:48:06;;;;;;;4.28;1.75;;;;;;;27.54;53.48;100944.84;5123981;28;20509;-77
2021/07/23 08:50:37;;;;;;;5.45;2.10;;;;;;;28.26;52.96;100935.56;5123347;28;20028;-76
2021/07/23 08:53:11;;;;;;;4.90;1.85;;;;;;;28.96;51.59;100929.91;5123974;28;20031;-76
2021/07/23 08:55:41;;;;;;;4.57;1.67;;;;;;;28.64;52.54;100932.44;5130955;28;20023;-77
2021/07/23 08:58:11;;;;;;;7.57;1.80;;;;;;;28.73;52.16;100923.41;5122699;28;20034;-76
2021/07/23 09:00:41;;;;;;;6.20;2.00;;;;;;;28.98;51.78;100928.75;5118894;29;20661;-77
2021/07/23 09:03:12;;;;;;;9.30;2.40;;;;;;;26.13;57.31;100933.75;5121874;29;20486;-76
2021/07/23 09:05:45;;;;;;;5.28;1.75;;;;;;;29.64;52.25;100926.06;5123807;28;20306;-77
2021/07/23 09:08:20;;;;;;;6.47;2.40;;;;;;;28.73;52.43;100923.41;5127209;28;20219;-77
2021/07/23 09:11:04;;;;;;;;;;;;;;;30.84;49.20;100914.06;5130804;28;20134;-77
2021/07/23 09:13:34;;;;;;;4.22;1.90;;;;;;;31.07;48.40;100914.13;5124150;28;20057;-77
2021/07/23 09:16:22;;;;;;;4.23;1.93;;;;;;;31.47;49.87;100916.59;5124437;28;20102;-77
2021/07/23 09:19:06;;;;;;;6.88;2.10;;;;;;;30.14;50.16;100918.66;5121174;29;20353;-77
2021/07/23 09:21:39;;;;;;;6.55;2.40;;;;;;;30.32;49.36;100916.59;5122983;28;20039;-77
2021/07/23 09:24:15;;;;;;;3.70;1.77;;;;;;;30.69;48.81;100914.13;5129930;28;20038;-77
2021/07/23 09:26:46;;;;;;;6.07;2.35;;;;;;;29.78;51.17;100911.91;5124738;28;20294;-77
2021/07/23 09:29:17;;;;;;;4.70;2.25;;;;;;;29.48;51.25;100909.88;5122864;29;20482;-78
2021/07/23 09:32:07;;;;;;;5.72;1.95;;;;;;;30.29;51.15;100901.56;5123916;28;20159;-77
2021/07/23 09:34:37;;;;;;;9.73;2.10;;;;;;;31.00;49.83;100896.97;5123834;28;20019;-77
2021/07/23 09:37:12;;;;;;;4.03;1.80;;;;;;;28.07;53.97;100903.50;5123962;28;20027;-77
2021/07/23 09:39:57;;;;;;;6.45;2.20;;;;;;;27.78;53.57;100902.94;5125844;28;20027;-76
2021/07/23 09:42:28;;;;;;;7.40;2.35;;;;;;;28.34;53.91;100895.28;5119242;29;20039;-76
2021/07/23 09:45:05;;;;;;;4.35;2.00;;;;;;;29.58;50.43;100891.69;5119783;28;20510;-76
2021/07/23 09:47:35;;;;;;;5.50;2.20;;;;;;;29.57;50.39;100903.50;5121798;28;20038;-76
2021/07/23 09:50:06;;;;;;;5.60;2.20;;;;;;;29.76;50.54;100893.19;5122107;28;20273;-76
2021/07/23 09:52:37;;;;;;;5.95;2.70;;;;;;;29.88;49.38;100888.31;5122167;28;20023;-77
2021/07/23 09:55:07;;;;;;;8.68;2.40;;;;;;;28.38;52.66;100893.13;5130425;28;20041;-76
2021/07/23 09:57:45;;;;;;;6.18;2.15;;;;;;;27.81;54.82;100889.19;5124630;28;20107;-77
2021/07/23 10:00:17;;;;;;;6.00;2.70;;;;;;;29.21;50.45;100880.53;5118319;29;20027;-77
2021/07/23 10:02:49;;;;;;;5.40;2.20;;;;;;;28.14;52.62;100888.41;5118902;28;20031;-77
2021/07/23 10:05:25;;;;;;;6.97;2.40;;;;;;;27.91;52.81;100883.72;5123547;28;20027;-77
2021/07/23 10:08:01;;;;;;;7.90;2.50;;;;;;;30.04;50.61;100872.97;5124625;28;20055;-77
2021/07/23 10:10:32;;;;;;;6.00;2.40;;;;;;;26.22;56.02;100882.00;5121857;28;20033;-77
2021/07/23 10:13:03;;;;;;;6.35;2.25;;;;;;;28.54;53.41;100872.53;5129393;28;20397;-77
2021/07/23 10:15:36;;;;;;;4.40;1.92;;;;;;;29.34;49.85;100864.69;5127659;28;20027;-77
2021/07/23 10:18:06;;;;;;;7.30;1.85;;;;;;;29.04;51.68;100868.84;5128694;28;20031;-77
2021/07/23 10:20:39;;;;;;;5.32;2.30;;;;;;;27.69;53.59;100868.94;5126685;28;20030;-77
2021/07/23 10:23:09;;;;;;;4.15;2.10;;;;;;;27.22;54.76;100869.31;5127524;28;20037;-76
2021/07/23 10:25:42;;;;;;;8.35;2.30;;;;;;;26.49;56.29;100866.81;5129916;28;20039;-76
2021/07/23 10:28:12;;;;;;;6.97;2.22;;;;;;;26.75;55.33;100865.94;5115953;28;20030;-76
2021/07/23 10:30:42;;;;;;;4.72;2.20;;;;;;;26.29;56.95;100865.16;5119892;28;20023;-76
2021/07/23 10:33:49;;;;;;;4.30;2.10;;;;;;;26.07;56.52;100859.31;5121308;28;20027;-77
2021/07/23 10:36:31;;;;;;;6.30;2.00;;;;;;;25.29;57.25;100864.91;5120945;29;20062;-76
2021/07/23 10:39:17;;;;;;;3.85;1.98;;;;;;;24.62;59.59;100864.91;5128805;28;20149;-76
2021/07/23 10:41:50;;;;;;;4.15;1.90;;;;;;;25.53;58.62;100853.75;5123778;28;20501;-76
2021/07/23 10:44:26;;;;;;;7.25;2.70;;;;;;;25.63;57.82;100854.63;5123179;28;20101;-76
2021/07/23 10:47:00;;;;;;;4.35;2.15;;;;;;;25.45;58.24;100857.16;5123342;28;20035;-77
2021/07/23 10:49:33;;;;;;;6.03;2.13;;;;;;;25.12;58.59;100856.72;5127861;28;20065;-76
2021/07/23 10:52:04;;;;;;;8.82;2.53;;;;;;;25.13;59.74;100853.03;5125662;28;20393;-76
2021/07/23 10:55:16;;;;;;;5.72;2.33;;;;;;;25.40;58.92;100848.72;5130234;28;20615;-76
2021/07/23 10:58:05;;;;;;;5.43;2.00;;;;;;;25.16;57.90;100850.91;5120729;28;20111;-76
2021/07/23 11:00:48;;;;;;;5.25;2.03;;;;;;;24.84;58.09;100842.28;5122807;29;20550;-76
2021/07/23 11:03:37;;;;;;;5.07;2.25;;;;;;;24.98;57.97;100838.38;5119221;29;20035;-76
2021/07/23 11:06:13;;;;;;;5.07;2.00;;;;;;;24.62;57.91;100847.06;5120976;28;20058;-76
2021/07/23 11:08:48;;;;;;;4.30;1.92;;;;;;;25.00;58.68;100844.44;5121651;28;20034;-77
2021/07/23 11:11:26;;;;;;;6.13;2.00;;;;;;;25.10;58.14;100835.44;5128386;28;20027;-77
2021/07/23 11:14:13;;;;;;;3.97;2.00;;;;;;;24.84;58.33;100842.28;5123324;28;20042;-76
2021/07/23 11:16:45;;;;;;;6.18;1.77;;;;;;;24.72;58.94;100834.53;5119603;29;20058;-76
2021/07/23 11:19:17;;;;;;;4.18;1.92;;;;;;;24.08;58.33;100838.50;5122812;28;20146;-76
2021/07/23 11:21:48;;;;;;;4.47;2.05;;;;;;;24.44;58.71;100824.59;5120895;29;20525;-76
2021/07/23 11:24:18;;;;;;;6.20;2.05;;;;;;;24.61;58.47;100829.31;5129668;28;20054;-76
2021/07/23 11:26:51;;;;;;;5.23;2.00;;;;;;;24.41;58.95;100822.16;5126977;28;20100;-76
2021/07/23 11:29:33;;;;;;;4.47;1.83;;;;;;;24.40;58.25;100814.31;5122742;28;20491;-76
2021/07/23 11:32:11;;;;;;;4.90;2.50;;;;;;;24.29;59.55;100823.28;5121748;28;20252;-76
2021/07/23 11:34:44;;;;;;;4.78;2.33;;;;;;;24.59;58.88;100817.06;5118859;29;20394;-76
2021/07/23 11:37:25;;;;;;;6.07;2.00;;;;;;;24.65;58.40;100817.34;5123113;28;20019;-76
2021/07/23 11:40:01;;;;;;;4.18;1.80;;;;;;;24.46;58.35;100821.75;5130110;28;20061;-76
2021/07/23 11:42:39;;;;;;;12.18;2.42;;;;;;;24.23;58.70;100820.28;5123644;28;20031;-76
2021/07/23 11:45:10;;;;;;;3.55;1.95;;;;;;;24.33;58.44;100814.00;5121314;28;20102;-75